createdAt,value
2022-11-14T00:01:50.307Z,43.83
2022-11-14T00:04:56.687Z,41.42
2022-11-14T00:08:02.645Z,46.28
2022-11-14T00:11:09.770Z,48.70
2022-11-14T00:14:15.975Z,43.92
2022-11-14T00:17:22.613Z,48.08
2022-11-14T00:20:28.510Z,47.03
2022-11-14T00:23:34.493Z,47.42
2022-11-14T00:26:40.670Z,56.38
2022-11-14T00:29:46.572Z,49.63
2022-11-14T00:32:52.510Z,77.80
2022-11-14T00:35:58.634Z,67.53
2022-11-14T00:39:05.020Z,95.97
2022-11-14T00:42:10.850Z,80.18
2022-11-14T00:45:17.020Z,88.13
2022-11-14T00:48:44.148Z,88.00
2022-11-14T00:51:50.493Z,88.50
2022-11-14T00:54:56.527Z,82.30
2022-11-14T00:58:02.752Z,102.82
2022-11-14T01:01:09.289Z,101.95
2022-11-14T01:04:15.181Z,97.85
2022-11-14T01:07:21.606Z,127.80
2022-11-14T01:10:27.856Z,136.52
2022-11-14T01:13:34.285Z,130.77
2022-11-14T01:16:40.381Z,123.80
2022-11-14T01:19:46.471Z,122.50
2022-11-14T01:22:52.668Z,108.75
2022-11-14T01:26:03.617Z,129.68
2022-11-14T01:29:09.592Z,142.00
2022-11-14T01:32:15.699Z,135.32
2022-11-14T01:35:22.015Z,147.93
2022-11-14T01:38:31.324Z,107.85
2022-11-14T01:41:37.593Z,123.72
2022-11-14T01:44:49.264Z,77.45
2022-11-14T01:48:14.526Z,61.08
2022-11-14T01:51:35.066Z,37.50
2022-11-14T01:54:47.059Z,42.45
2022-11-14T01:57:53.446Z,39.97
2022-11-14T02:01:00.173Z,38.47
2022-11-14T02:04:08.878Z,47.33
2022-11-14T02:07:18.890Z,27.35
2022-11-14T02:10:24.720Z,33.95
2022-11-14T02:13:31.111Z,39.92
2022-11-14T02:16:41.173Z,45.10
2022-11-14T02:20:06.903Z,37.85
2022-11-14T02:23:13.496Z,36.03
2022-11-14T02:26:21.032Z,25.58
2022-11-14T02:29:27.042Z,34.83
2022-11-14T02:32:56.978Z,37.88
2022-11-14T02:35:59.213Z,35.22
2022-11-14T02:39:05.260Z,33.22
2022-11-14T02:42:11.446Z,26.13
2022-11-14T02:45:17.752Z,23.40
2022-11-14T02:48:23.915Z,29.20
2022-11-14T02:51:30.054Z,28.85
2022-11-14T02:54:36.249Z,21.15
2022-11-14T02:57:42.152Z,30.85
2022-11-14T03:01:18.584Z,24.80
2022-11-14T03:04:14.268Z,25.48
2022-11-14T03:07:20.534Z,30.17
2022-11-14T03:10:26.877Z,24.17
2022-11-14T03:13:32.891Z,23.95
2022-11-14T03:16:38.703Z,23.52
2022-11-14T03:19:44.790Z,24.45
2022-11-14T03:22:51.156Z,31.23
2022-11-14T03:26:01.295Z,26.05
2022-11-14T03:29:07.274Z,29.48
2022-11-14T03:32:13.374Z,31.60
2022-11-14T03:35:19.742Z,24.95
2022-11-14T03:38:25.983Z,32.85
2022-11-14T03:41:32.773Z,44.30
2022-11-14T03:44:39.218Z,26.02
2022-11-14T03:47:45.564Z,168.00
2022-11-14T03:50:51.990Z,46.25
2022-11-14T03:53:58.331Z,34.15
2022-11-14T03:57:08.825Z,62.72
2022-11-14T04:00:15.710Z,39.95
2022-11-14T04:03:22.690Z,39.45
2022-11-14T04:06:29.080Z,22.30
2022-11-14T04:09:35.540Z,21.27
2022-11-14T04:12:41.562Z,86.25
2022-11-14T04:15:47.885Z,98.13
2022-11-14T04:18:54.251Z,32.97
2022-11-14T04:22:00.500Z,24.83
2022-11-14T04:25:12.608Z,31.35
2022-11-14T04:28:18.999Z,31.13
2022-11-14T04:31:25.181Z,31.63
2022-11-14T04:34:31.409Z,79.88
2022-11-14T04:37:40.245Z,108.78
2022-11-14T04:40:54.137Z,110.63
2022-11-14T04:44:00.159Z,80.45
2022-11-14T04:47:06.541Z,77.18
2022-11-14T04:50:12.766Z,66.80
2022-11-14T04:53:21.753Z,60.75
2022-11-14T04:56:30.201Z,101.90
2022-11-14T04:59:36.451Z,48.90
2022-11-14T05:02:42.419Z,40.35
2022-11-14T05:05:48.540Z,51.25
2022-11-14T05:08:54.398Z,24.85
2022-11-14T05:12:00.664Z,27.70
2022-11-14T05:15:07.314Z,22.52
2022-11-14T05:18:13.677Z,33.05
2022-11-14T05:21:19.551Z,27.73
2022-11-14T05:24:26.409Z,58.78
2022-11-14T05:27:32.641Z,39.72
2022-11-14T05:30:38.912Z,36.75
2022-11-14T05:33:47.249Z,19.95
2022-11-14T05:36:53.643Z,12.02
2022-11-14T05:40:00.047Z,18.77
2022-11-14T05:43:07.253Z,9.45
2022-11-14T05:46:14.879Z,10.40
2022-11-14T05:49:22.197Z,6.68
2022-11-14T05:52:28.243Z,12.77
2022-11-14T05:55:34.519Z,10.70
2022-11-14T05:58:40.740Z,10.70
2022-11-14T06:01:46.796Z,16.33
2022-11-14T06:04:53.154Z,11.75
2022-11-14T06:07:59.561Z,10.52
2022-11-14T06:11:08.236Z,11.13
2022-11-14T06:14:14.214Z,10.48
2022-11-14T06:17:20.314Z,12.63
2022-11-14T06:20:26.519Z,14.13
2022-11-14T06:23:32.872Z,10.55
2022-11-14T06:26:39.213Z,8.98
2022-11-14T06:29:45.248Z,8.52
2022-11-14T06:32:57.356Z,11.05
2022-11-14T06:36:07.864Z,15.77
2022-11-14T06:39:13.832Z,14.55
2022-11-14T06:42:20.023Z,19.38
2022-11-14T06:45:26.308Z,20.08
2022-11-14T06:48:33.022Z,40.00
2022-11-14T06:51:38.916Z,12.52
2022-11-14T06:54:45.361Z,21.08
2022-11-14T06:57:55.126Z,24.45
2022-11-14T07:01:08.444Z,14.85
2022-11-14T07:04:14.486Z,22.52
2022-11-14T07:07:20.704Z,18.20
2022-11-14T07:10:26.806Z,17.33
2022-11-14T07:13:33.796Z,18.88
2022-11-14T07:16:39.760Z,24.17
2022-11-14T07:19:45.924Z,24.08
2022-11-14T07:22:52.190Z,33.78
2022-11-14T07:26:03.050Z,21.73
2022-11-14T07:29:09.133Z,32.50
2022-11-14T07:32:15.557Z,32.38
2022-11-14T07:35:21.702Z,26.17
2022-11-14T07:38:28.413Z,21.90
2022-11-14T07:41:34.854Z,26.55
2022-11-14T07:44:41.059Z,21.45
2022-11-14T07:47:47.169Z,50.63
2022-11-14T07:50:53.277Z,19.25
2022-11-14T07:53:59.154Z,24.35
2022-11-14T07:57:05.524Z,31.40
2022-11-14T08:00:12.354Z,24.45
2022-11-14T08:03:18.259Z,47.63
2022-11-14T08:06:24.532Z,28.48
2022-11-14T08:09:30.852Z,30.88
2022-11-14T08:12:38.767Z,29.85
2022-11-14T08:15:44.866Z,29.00
2022-11-14T08:18:51.154Z,22.80
2022-11-14T08:21:57.536Z,27.60
2022-11-14T08:25:04.036Z,26.10
2022-11-14T08:28:10.122Z,32.38
2022-11-14T08:31:16.295Z,27.67
2022-11-14T08:34:23.902Z,24.05
2022-11-14T08:37:29.723Z,18.85
2022-11-14T08:40:35.676Z,24.58
2022-11-14T08:43:41.899Z,19.92
2022-11-14T08:46:47.899Z,25.15
2022-11-14T08:49:54.074Z,28.02
2022-11-14T08:53:00.330Z,26.80
2022-11-14T08:56:06.822Z,28.88
2022-11-14T08:59:12.965Z,33.30
2022-11-14T09:02:19.297Z,28.45
2022-11-14T09:05:26.007Z,34.95
2022-11-14T09:08:32.759Z,40.92
2022-11-14T09:11:39.429Z,50.28
2022-11-14T09:14:45.633Z,32.05
2022-11-14T09:17:55.923Z,23.95
2022-11-14T09:21:06.727Z,22.80
2022-11-14T09:24:12.576Z,16.02
2022-11-14T09:27:19.024Z,19.08
2022-11-14T09:30:25.391Z,16.38
2022-11-14T09:33:31.686Z,16.92
2022-11-14T09:36:38.132Z,17.20
2022-11-14T09:39:44.344Z,22.33
2022-11-14T09:43:02.923Z,21.10
2022-11-14T09:46:19.316Z,22.88
2022-11-14T09:49:55.040Z,13.48
2022-11-14T09:53:08.205Z,12.25
2022-11-14T09:56:20.609Z,15.55
2022-11-14T09:59:27.461Z,15.98
2022-11-14T10:03:06.883Z,14.57
2022-11-14T10:06:32.670Z,15.70
2022-11-14T10:09:52.548Z,13.57
2022-11-14T10:13:07.182Z,14.23
2022-11-14T10:16:18.803Z,18.88
2022-11-14T10:19:37.498Z,14.45
2022-11-14T10:23:14.391Z,18.98
2022-11-14T10:26:33.391Z,20.70
2022-11-14T10:30:10.862Z,21.30
2022-11-14T10:33:35.614Z,17.45
2022-11-14T10:37:14.349Z,26.27
2022-11-14T10:40:25.171Z,16.67
2022-11-14T10:43:45.160Z,17.17
2022-11-14T10:46:56.753Z,14.57
2022-11-14T10:50:25.274Z,16.45
2022-11-14T10:53:34.195Z,16.88
2022-11-14T10:56:47.977Z,12.20
2022-11-14T10:59:55.752Z,20.70
2022-11-14T11:03:01.944Z,16.60
2022-11-14T11:06:25.213Z,17.45
2022-11-14T11:09:50.049Z,20.55
2022-11-14T11:12:56.590Z,25.20
2022-11-14T11:16:05.286Z,19.15
2022-11-14T11:19:18.023Z,18.25
2022-11-14T11:22:26.268Z,18.50
2022-11-14T11:25:34.387Z,17.92
2022-11-14T11:28:43.665Z,22.05
2022-11-14T11:31:59.666Z,24.45
2022-11-14T11:35:12.455Z,28.05
2022-11-14T11:38:20.340Z,24.10
2022-11-14T11:45:01.900Z,23.13
2022-11-14T11:48:19.926Z,26.85
2022-11-14T11:51:27.228Z,24.77
2022-11-14T11:54:55.626Z,25.42
2022-11-14T11:58:27.783Z,22.30
2022-11-14T12:01:33.851Z,18.35
2022-11-14T12:04:40.134Z,17.77
2022-11-14T12:07:58.879Z,19.77
2022-11-14T12:11:10.265Z,21.05
2022-11-14T12:14:41.195Z,19.95
2022-11-14T12:17:56.022Z,17.95
2022-11-14T12:21:12.791Z,20.80
2022-11-14T12:24:41.474Z,27.05
2022-11-14T12:28:07.877Z,25.02
2022-11-14T12:31:17.274Z,18.77
2022-11-14T12:34:32.143Z,18.13
2022-11-14T12:37:44.820Z,20.45
2022-11-14T12:44:28.285Z,14.18
2022-11-14T12:47:34.860Z,18.42
2022-11-14T12:50:43.267Z,17.13
2022-11-14T12:53:49.701Z,15.13
2022-11-14T12:57:00.973Z,12.68
2022-11-14T13:00:09.247Z,16.50
2022-11-14T13:03:41.708Z,20.90
2022-11-14T13:07:15.848Z,18.08
2022-11-14T13:10:32.383Z,17.23
2022-11-14T13:14:20.740Z,16.85
2022-11-14T13:17:45.999Z,18.33
2022-11-14T13:21:21.756Z,15.30
2022-11-14T13:24:59.741Z,18.00
2022-11-14T13:28:37.437Z,14.93
2022-11-14T13:31:49.660Z,14.13
2022-11-14T13:38:48.827Z,26.17
2022-11-14T13:42:07.943Z,32.20
2022-11-14T13:45:42.877Z,16.10
2022-11-14T13:49:37.291Z,14.10
2022-11-14T13:52:47.044Z,11.80
2022-11-14T13:55:59.677Z,15.32
2022-11-14T13:59:46.718Z,20.33
2022-11-14T14:03:07.800Z,15.00
2022-11-14T14:06:51.059Z,10.43
2022-11-14T14:10:26.841Z,11.85
2022-11-14T14:13:55.657Z,13.23
2022-11-14T14:17:19.023Z,12.80
2022-11-14T14:20:36.197Z,15.57
2022-11-14T14:23:58.177Z,15.63
2022-11-14T14:27:41.048Z,13.80
2022-11-14T14:34:32.269Z,23.38
2022-11-14T14:37:38.375Z,20.42
2022-11-14T14:40:44.746Z,19.95
2022-11-14T14:43:55.360Z,21.15
2022-11-14T14:47:31.210Z,14.00
2022-11-14T14:50:42.158Z,18.88
2022-11-14T14:53:54.236Z,17.95
2022-11-14T15:00:26.455Z,24.33
2022-11-14T15:03:38.081Z,26.83
2022-11-14T15:06:47.181Z,28.58
2022-11-14T15:10:02.236Z,32.10
2022-11-14T15:13:15.056Z,25.85
2022-11-14T15:16:22.121Z,36.72
2022-11-14T15:19:40.740Z,26.55
2022-11-14T15:23:26.925Z,16.95
2022-11-14T15:26:55.246Z,18.00
2022-11-14T15:30:04.934Z,18.02
2022-11-14T15:33:34.462Z,25.30
2022-11-14T15:37:07.735Z,28.27
2022-11-14T15:40:23.098Z,32.88
2022-11-14T15:43:45.560Z,31.70
2022-11-14T15:50:06.080Z,28.13
2022-11-14T15:53:23.334Z,23.65
2022-11-14T15:56:30.634Z,22.58
2022-11-14T15:59:37.675Z,35.50
2022-11-14T16:02:59.574Z,49.97
2022-11-14T16:06:05.750Z,42.35
2022-11-14T16:09:18.370Z,35.28
2022-11-14T16:12:24.620Z,33.17
2022-11-14T16:15:30.896Z,30.27
2022-11-14T16:18:37.102Z,44.35
2022-11-14T16:21:43.605Z,30.85
2022-11-14T16:24:49.635Z,32.40
2022-11-14T16:27:55.942Z,39.75
2022-11-14T16:31:02.171Z,35.35
2022-11-14T16:34:15.691Z,40.17
2022-11-14T16:37:25.597Z,30.13
2022-11-14T16:40:40.310Z,27.73
2022-11-14T16:43:46.647Z,27.73
2022-11-14T16:46:52.609Z,24.48
2022-11-14T16:49:59.229Z,24.10
2022-11-14T16:53:15.201Z,26.58
2022-11-14T16:56:21.565Z,26.10
2022-11-14T16:59:27.855Z,27.67
2022-11-14T17:02:34.093Z,26.67
2022-11-14T17:05:50.614Z,25.65
2022-11-14T17:08:59.805Z,30.95
2022-11-14T17:12:06.849Z,23.00
2022-11-14T17:15:13.086Z,20.27
2022-11-14T17:18:19.449Z,21.77
2022-11-14T17:21:26.657Z,28.75
2022-11-14T17:24:34.920Z,25.02
2022-11-14T17:27:40.924Z,28.55
2022-11-14T17:30:46.807Z,31.20
2022-11-14T17:33:55.351Z,23.20
2022-11-14T17:37:02.097Z,26.13
2022-11-14T17:40:15.517Z,26.45
2022-11-14T17:43:42.748Z,29.48
2022-11-14T17:46:52.239Z,23.08
2022-11-14T17:49:58.387Z,36.75
2022-11-14T17:53:04.621Z,31.85
2022-11-14T17:56:19.727Z,28.02
2022-11-14T17:59:26.033Z,31.80
2022-11-14T18:02:32.257Z,24.98
2022-11-14T18:05:38.862Z,27.65
2022-11-14T18:08:44.903Z,26.98
2022-11-14T18:11:51.058Z,25.83
2022-11-14T18:14:56.982Z,32.38
2022-11-14T18:18:03.184Z,29.48
2022-11-14T18:21:20.154Z,33.47
2022-11-14T18:24:26.635Z,33.17
2022-11-14T18:27:32.519Z,43.88
2022-11-14T18:30:42.292Z,31.55
2022-11-14T18:33:48.832Z,30.30
2022-11-14T18:36:55.137Z,32.38
2022-11-14T18:40:01.039Z,27.58
2022-11-14T18:43:07.327Z,46.30
2022-11-14T18:46:21.924Z,39.97
2022-11-14T18:49:28.619Z,40.08
2022-11-14T18:52:34.757Z,47.70
2022-11-14T18:55:43.165Z,34.03
2022-11-14T18:58:53.422Z,42.45
2022-11-14T19:02:02.117Z,51.13
2022-11-14T19:05:08.872Z,39.80
2022-11-14T19:08:21.316Z,49.47
2022-11-14T19:11:46.274Z,37.78
2022-11-14T19:14:54.122Z,50.40
2022-11-14T19:18:00.627Z,46.25
2022-11-14T19:21:06.725Z,43.40
2022-11-14T19:24:13.067Z,50.28
2022-11-14T19:27:22.164Z,48.35
2022-11-14T19:30:30.862Z,49.33
2022-11-14T19:33:41.455Z,47.55
2022-11-14T19:37:03.232Z,50.67
2022-11-14T19:40:10.433Z,51.33
2022-11-14T19:43:18.015Z,49.70
2022-11-14T19:46:31.607Z,40.67
2022-11-14T19:49:37.709Z,43.58
2022-11-14T19:52:43.908Z,45.03
2022-11-14T19:55:49.911Z,54.88
2022-11-14T19:58:56.927Z,48.97
2022-11-14T20:02:05.832Z,47.45
2022-11-14T20:05:12.155Z,59.42
2022-11-14T20:08:18.461Z,56.20
2022-11-14T20:11:27.578Z,44.72
2022-11-14T20:14:33.856Z,49.05
2022-11-14T20:17:40.331Z,50.40
2022-11-14T20:20:46.401Z,41.58
2022-11-14T20:23:53.533Z,47.75
2022-11-14T20:26:59.880Z,53.17
2022-11-14T20:30:06.927Z,42.90
2022-11-14T20:33:13.307Z,48.17
2022-11-14T20:36:22.349Z,52.08
2022-11-14T20:39:28.901Z,38.67
2022-11-14T20:42:35.063Z,54.75
2022-11-14T20:45:41.325Z,41.35
2022-11-14T20:48:48.316Z,50.47
2022-11-14T20:51:54.422Z,47.35
2022-11-14T20:55:00.849Z,42.05
2022-11-14T20:58:07.133Z,47.30
2022-11-14T21:01:14.281Z,37.40
2022-11-14T21:04:20.593Z,40.35
2022-11-14T21:07:27.006Z,37.17
2022-11-14T21:10:47.266Z,33.38
2022-11-14T21:13:59.302Z,36.40
2022-11-14T21:17:05.595Z,37.10
2022-11-14T21:20:11.762Z,34.85
2022-11-14T21:23:17.580Z,35.30
2022-11-14T21:26:27.905Z,30.92
2022-11-14T21:29:34.139Z,28.88
2022-11-14T21:32:42.509Z,20.77
2022-11-14T21:35:48.484Z,26.48
2022-11-14T21:38:55.142Z,27.67
2022-11-14T21:42:01.032Z,28.58
2022-11-14T21:45:07.734Z,22.73
2022-11-14T21:48:13.722Z,19.55
2022-11-14T21:51:22.926Z,19.85
2022-11-14T21:54:28.854Z,20.30
2022-11-14T21:57:35.000Z,17.73
2022-11-14T22:00:42.238Z,18.00
2022-11-14T22:04:07.117Z,19.42
2022-11-14T22:07:13.188Z,20.58
2022-11-14T22:10:19.490Z,19.13
2022-11-14T22:13:25.825Z,22.05
2022-11-14T22:16:33.095Z,21.27
2022-11-14T22:19:39.378Z,15.13
2022-11-14T22:22:45.365Z,21.27
2022-11-14T22:25:59.582Z,15.70
2022-11-14T22:29:06.824Z,21.88
2022-11-14T22:32:13.254Z,21.10
2022-11-14T22:35:19.588Z,18.08
2022-11-14T22:38:29.110Z,15.50
2022-11-14T22:41:35.327Z,15.55
2022-11-14T22:44:41.574Z,16.65
2022-11-14T22:47:48.052Z,23.00
2022-11-14T22:51:24.960Z,12.77
2022-11-14T22:54:31.361Z,18.15
2022-11-14T22:57:37.506Z,13.75
2022-11-14T23:00:43.656Z,20.60
2022-11-14T23:03:54.926Z,15.70
2022-11-14T23:07:01.879Z,10.47
2022-11-14T23:10:11.033Z,13.80
2022-11-14T23:13:17.301Z,13.48
2022-11-14T23:16:30.057Z,10.88
2022-11-14T23:19:36.292Z,13.32
2022-11-14T23:22:42.571Z,10.73
2022-11-14T23:25:48.976Z,9.15
2022-11-14T23:28:55.651Z,11.05
2022-11-14T23:32:02.115Z,11.52
2022-11-14T23:35:08.311Z,12.82
2022-11-14T23:38:14.449Z,11.90
2022-11-14T23:41:27.608Z,9.70
2022-11-14T23:44:34.022Z,9.98
2022-11-14T23:47:40.399Z,8.38
2022-11-14T23:50:50.969Z,8.13
2022-11-14T23:53:56.876Z,8.52
2022-11-14T23:57:04.810Z,10.05
